Sidney, MT

2:44 PM MST on February 23, 2017 (GMT -0700)
Sidney-Richland Municipal

Weather History for KSDY - January, 2013

Change the Weather History Date:

Thursday, January 10, 2013

  Actual Average Record
Temperature  
Mean Temperature 27 °F -  
Max Temperature 35 °F 17 °F 52 °F (1990)
Min Temperature 19 °F -3 °F -35 °F (1982)
Degree Days  
Heating Degree Days 38    
Moisture  
Dew Point 25 °F    
Average Humidity 86    
Maximum Humidity 93    
Minimum Humidity 75    
Precipitation  
Precipitation 0.00 in - - ()
Sea Level Pressure  
Sea Level Pressure 29.60 in    
Wind  
Wind Speed 9 mph (NNW)    
Max Wind Speed 25 mph    
Max Gust Speed 26 mph    
Visibility 9 miles    
Events      
Averages and records for this station are not official NWS values.
T = Trace of Precipitation, MM = Missing Value Source: NWS Daily Summary

Daily Weather History Graph

Daily Weather History Graph

Search for Another Location

Airport or City:

Trip Planner

Search our weather history database for the weather conditions in past years. The results will help you decide how hot, cold, wet, or windy it might be!

Date:

Astronomy

Jan. 10, 2013 Rise Set
Actual Time 7:43 AM MST 4:26 PM MST
Civil Twilight 7:07 AM MST 5:01 PM MST
Nautical Twilight 6:29 AM MST 5:40 PM MST
Astronomical Twilight 5:52 AM MST 6:17 PM MST
Moon 6:24 AM MST (1/10) 3:37 PM MST (1/10)
Length of Visible Light 9h 53m
Length of Day
8h 42m
Waning Crescent, 2% of the Moon is Illuminated
Jan 10
Waning Crescent
Jan 11
New
Jan 18
First Quarter
Jan 26
Full
Feb 3
Last Quarter

Hourly Weather History & Observations

Time (MST) Temp. Windchill Dew Point Humidity Pressure Visibility Wind Dir Wind Speed Gust Speed Precip Events Conditions
12:15 AM 32.0 °F 27.5 °F 26.6 °F 80% 29.68 in 10.0 mi SSE 4.6 mph - N/A   Clear
12:35 AM 30.2 °F 24.3 °F 24.8 °F 80% 29.68 in 10.0 mi South 5.8 mph - N/A   Clear
12:55 AM 30.2 °F 21.9 °F 26.6 °F 86% 29.67 in 10.0 mi South 9.2 mph - N/A   Clear
1:15 AM 30.2 °F - 24.8 °F 80% 29.67 in 10.0 mi Calm Calm - N/A   Clear
1:35 AM 30.2 °F 26.7 °F 26.6 °F 86% 29.67 in 10.0 mi South 3.5 mph - N/A   Clear
1:55 AM 30.2 °F 24.3 °F 24.8 °F 80% 29.67 in 10.0 mi SSE 5.8 mph - N/A   Clear
2:15 AM 30.2 °F 24.3 °F 26.6 °F 86% 29.67 in 10.0 mi South 5.8 mph - N/A   Clear
2:35 AM 30.2 °F 23.4 °F 26.6 °F 86% 29.67 in 10.0 mi SSW 6.9 mph - N/A   Clear
2:55 AM 32.0 °F 23.0 °F 28.4 °F 87% 29.66 in 10.0 mi SSW 11.5 mph - N/A   Clear
3:15 AM 32.0 °F 24.8 °F 26.6 °F 80% 29.66 in 10.0 mi SSW 8.1 mph - N/A   Clear
3:35 AM 35.6 °F 28.0 °F 28.4 °F 75% 29.65 in 10.0 mi SSW 10.4 mph - N/A   Clear
3:55 AM 33.8 °F 27.0 °F 28.4 °F 81% 29.65 in 10.0 mi SSW 8.1 mph - N/A   Clear
4:15 AM 32.0 °F 26.4 °F 26.6 °F 80% 29.65 in 10.0 mi SSW 5.8 mph - N/A   Clear
4:35 AM 30.2 °F 25.4 °F 26.6 °F 86% 29.63 in 10.0 mi SSE 4.6 mph - N/A   Clear
4:55 AM 28.4 °F 23.3 °F 26.6 °F 93% 29.62 in 10.0 mi SSE 4.6 mph - N/A   Clear
5:15 AM 28.4 °F 22.2 °F 26.6 °F 93% 29.61 in 10.0 mi SSW 5.8 mph - N/A   Clear
5:35 AM 28.4 °F 21.2 °F 26.6 °F 93% 29.60 in 10.0 mi South 6.9 mph - N/A   Clear
5:55 AM 28.4 °F 21.2 °F 26.6 °F 93% 29.60 in 10.0 mi South 6.9 mph - N/A   Clear
6:35 AM 28.4 °F - 26.6 °F 93% 29.59 in 10.0 mi Calm Calm - N/A   Clear
6:55 AM 28.4 °F - 26.6 °F 93% 29.60 in 10.0 mi Calm Calm - N/A   Clear
7:15 AM 28.4 °F - 24.8 °F 86% 29.59 in 10.0 mi Calm Calm - N/A   Clear
7:35 AM 26.6 °F - 24.8 °F 93% 29.60 in 10.0 mi Calm Calm - N/A   Clear
7:55 AM 26.6 °F - 23.0 °F 86% 29.61 in 10.0 mi Calm Calm - N/A   Clear
8:15 AM 26.6 °F 21.2 °F 24.8 °F 93% 29.60 in 10.0 mi North 4.6 mph - N/A   Clear
8:35 AM 28.4 °F 23.3 °F 24.8 °F 86% 29.60 in 10.0 mi NW 4.6 mph - N/A   Clear
8:55 AM 28.4 °F - 26.6 °F 93% 29.59 in 10.0 mi Calm Calm - N/A   Clear
9:15 AM 30.2 °F - 28.4 °F 93% 29.57 in 10.0 mi Calm Calm - N/A   Clear
9:55 AM 30.2 °F 24.3 °F 26.6 °F 86% 29.57 in 10.0 mi NNW 5.8 mph - N/A   Clear
10:15 AM 30.2 °F 23.4 °F 26.6 °F 86% 29.56 in 10.0 mi NE 6.9 mph - N/A   Clear
10:55 AM 32.0 °F 24.2 °F 28.4 °F 87% 29.54 in 10.0 mi NNW 9.2 mph - N/A   Clear
11:15 AM 33.8 °F 29.6 °F 28.4 °F 81% 29.54 in 10.0 mi ENE 4.6 mph - N/A   Clear
11:35 AM 32.0 °F 23.6 °F 28.4 °F 87% 29.51 in 10.0 mi North 10.4 mph - N/A   Clear
11:55 AM 33.8 °F 25.8 °F 28.4 °F 81% 29.50 in 10.0 mi North 10.4 mph - N/A   Clear
12:15 PM 33.8 °F 27.7 °F 28.4 °F 81% 29.52 in 10.0 mi ESE 6.9 mph - N/A   Clear
12:55 PM 32.0 °F 25.6 °F 26.6 °F 80% 29.52 in 10.0 mi North 6.9 mph - N/A   Clear
1:15 PM 32.0 °F 23.6 °F 28.4 °F 87% 29.52 in 10.0 mi North 10.4 mph - N/A   Clear
1:35 PM 33.8 °F 24.8 °F 28.4 °F 81% 29.54 in 10.0 mi NNW 12.7 mph - N/A   Clear
1:55 PM 33.8 °F 24.3 °F 28.4 °F 81% 29.54 in 10.0 mi North 13.8 mph - N/A   Clear
2:15 PM 33.8 °F 23.5 °F 30.2 °F 87% 29.53 in 10.0 mi North 16.1 mph - N/A   Clear
2:35 PM 33.8 °F 23.2 °F 30.2 °F 87% 29.54 in 10.0 mi North 17.3 mph - N/A   Clear
2:55 PM 33.8 °F 22.2 °F 28.4 °F 81% 29.54 in 10.0 mi North 20.7 mph 26.5 mph N/A   Mostly Cloudy
3:15 PM - - - N/A% 29.54 in 10.0 mi North 25.3 mph - N/A   Overcast
3:35 PM 28.4 °F 15.1 °F 24.8 °F 86% 29.55 in 10.0 mi NNW 20.7 mph 26.5 mph N/A   Overcast
3:55 PM 26.6 °F 13.4 °F 24.8 °F 93% 29.56 in 10.0 mi NNW 18.4 mph - N/A   Overcast
4:15 PM 26.6 °F 14.3 °F 21.2 °F 80% 29.56 in 10.0 mi NNW 16.1 mph - N/A   Overcast
4:35 PM 24.8 °F 10.7 °F 21.2 °F 86% 29.56 in 10.0 mi NNW 19.6 mph - N/A   Mostly Cloudy
4:55 PM 24.8 °F 10.7 °F 21.2 °F 86% 29.56 in 10.0 mi NNW 19.6 mph - N/A   Mostly Cloudy
5:15 PM 24.8 °F 11.1 °F 23.0 °F 93% 29.56 in 10.0 mi NNW 18.4 mph 26.5 mph N/A   Mostly Cloudy
5:35 PM 26.6 °F 13.1 °F 23.0 °F 86% 29.56 in 10.0 mi NNW 19.6 mph - N/A   Overcast
5:55 PM 26.6 °F 13.8 °F 23.0 °F 86% 29.57 in 10.0 mi NNW 17.3 mph - N/A   Overcast
6:15 PM 26.6 °F 13.8 °F 23.0 °F 86% 29.58 in 10.0 mi NNW 17.3 mph - N/A   Overcast
6:35 PM 26.6 °F 13.4 °F 21.2 °F 80% 29.58 in 10.0 mi NNW 18.4 mph - N/A   Overcast
7:15 PM 24.8 °F 10.3 °F 21.2 °F 86% 29.57 in 10.0 mi NNW 20.7 mph 24.2 mph N/A   Overcast
7:35 PM 24.8 °F 10.3 °F 19.4 °F 80% 29.59 in 10.0 mi NNW 20.7 mph 24.2 mph N/A   Overcast
7:55 PM 23.0 °F 8.0 °F 19.4 °F 86% 29.59 in 10.0 mi NNW 20.7 mph - N/A   Overcast
8:15 PM 23.0 °F 8.3 °F 19.4 °F 86% 29.59 in 10.0 mi NNW 19.6 mph - N/A   Overcast
8:55 PM - - - N/A% 29.59 in 10.0 mi NNW 19.6 mph - N/A   Overcast
9:15 PM - - - N/A% 29.60 in 10.0 mi North 13.8 mph - N/A   Overcast
9:35 PM 24.8 °F 12.4 °F 21.2 °F 86% 29.62 in 7.0 mi North 15.0 mph - N/A   Overcast
9:55 PM - - - N/A% 29.62 in 8.0 mi North 18.4 mph - N/A   Overcast
10:15 PM 23.0 °F 9.6 °F 19.4 °F 86% 29.64 in 5.0 mi North 16.1 mph 21.9 mph N/A   Overcast
10:35 PM 21.2 °F 7.8 °F 19.4 °F 93% 29.64 in 5.0 mi North 15.0 mph 20.7 mph N/A   Overcast
10:55 PM 21.2 °F 7.8 °F 19.4 °F 93% 29.64 in 5.0 mi North 15.0 mph - N/A   Overcast
11:15 PM 21.2 °F 6.8 °F 17.6 °F 86% 29.64 in 4.0 mi North 17.3 mph - N/A   Overcast
11:35 PM 19.4 °F 5.5 °F 17.6 °F 93% 29.66 in 2.5 mi North 15.0 mph - N/A   Overcast
11:55 PM 19.4 °F 6.0 °F 17.6 °F 93% 29.67 in 3.0 mi North 13.8 mph - N/A   Overcast